South Bend, Indiana
Current Conditions -  °F | °C
As of 8:54 PM on Sunday 23 Nov 2014 (Local Time) from KSBN Reporting Station
Moderate Rain Moderate Rain  
Wind Chill: 52°   Ceiling: 500
Heat Index: 52°   Visibility: 5mi
Dew Point: 50°   Wind: 10mph
Humidity: 93%   Direction: 120°ESE
Pressure: 29.32"   Gusts: NA
Location:  41.68°N, 86.25°W
Report Text: KSBN 240154Z 12009KT 5SM RA BR OVC005 11/10 A2932 RMK AO2 PRESFR SLP927 P0015 T01110100
Loading
Personal Weather Stations






























Interactive Weather Map New forecast layout! Learn more

10-Day Weather Forecast

Advertisements
Track Severe Weather on mobile